General Aviation Weather

Text Reports

Enter one or more of the following location identifiers separated by a space:

Zip Code, Four-Character ICAO or Three-Character IATA airport codes.

METAR - Aviation Routine Weather Report
KSKX - Taos, New Mexico
Updated at 12:55 AM GMT on July 08, 2015 (6:55 PM MDT):
METAR KSKX 080055Z AUTO 07010KT 10SM FEW038 17/07 A3019 RMK AO1 TSB01E16
TAF - Terminal Area Forecast
KSKX - Taos, New Mexico
Updated at 12:55 AM GMT on July 08, 2015 (6:55 PM MDT):
No TAF is currently available for this location.
Decoded:
No decoded TAF is available.
PIREP - Pilot Weather Report
KSKX - Taos, New Mexico
Updated at 12:55 AM GMT on July 08, 2015 (6:55 PM MDT):
No PIREP is currently available for this location.
AIRMET - Airmens Meteorological Information
KSKX - Taos, New Mexico
Updated at 12:55 AM GMT on July 08, 2015 (6:55 PM MDT):
No AIRMET is currently available for this location.
SIGMET - Significant Meteorological Information
KSKX - Taos, New Mexico
Updated at 12:55 AM GMT on July 08, 2015 (6:55 PM MDT):
No SIGMET is currently available for this location.
NOTAM - Notice to Airmen
KSKX - Taos, New Mexico
Updated at 12:55 AM GMT on July 08, 2015 (6:55 PM MDT):
No NOTAM is currently available for this location.
Forecast Area
KSKX - Taos, New Mexico
Updated at 12:55 AM GMT on July 08, 2015 (6:55 PM MDT):
No NOTAM is currently available for this location.
Aviation Weather Maps